createdAt,value
2019-03-12T00:00:34.511Z,55.73
2019-03-12T00:03:05.797Z,56.43
2019-03-12T00:05:36.811Z,55.75
2019-03-12T00:08:08.853Z,56.24
2019-03-12T00:10:40.021Z,56.30
2019-03-12T00:13:10.907Z,56.47
2019-03-12T00:15:41.963Z,56.95
2019-03-12T00:18:12.926Z,56.95
2019-03-12T00:20:44.083Z,56.80
2019-03-12T00:23:15.142Z,57.26
2019-03-12T00:25:46.117Z,59.21
2019-03-12T00:28:17.096Z,57.61
2019-03-12T00:30:48.131Z,58.97
2019-03-12T00:33:19.307Z,58.05
2019-03-12T00:35:52.805Z,57.87
2019-03-12T00:38:23.786Z,58.41
2019-03-12T00:40:54.984Z,59.50
2019-03-12T00:43:27.512Z,57.30
2019-03-12T00:45:58.799Z,56.83
2019-03-12T00:48:31.504Z,57.67
2019-03-12T00:51:02.676Z,57.13
2019-03-12T00:53:34.788Z,56.33
2019-03-12T00:56:06.007Z,56.46
2019-03-12T00:58:36.969Z,56.44
2019-03-12T01:01:08.164Z,56.58
2019-03-12T01:03:39.176Z,55.03
2019-03-12T01:06:10.201Z,54.84
2019-03-12T01:08:41.104Z,54.70
2019-03-12T01:11:13.812Z,54.45
2019-03-12T01:13:45.671Z,53.06
2019-03-12T01:16:16.738Z,53.71
2019-03-12T01:18:47.603Z,53.23
2019-03-12T01:21:18.630Z,53.28
2019-03-12T01:23:49.771Z,52.71
2019-03-12T01:26:22.766Z,52.34
2019-03-12T01:28:53.820Z,52.79
2019-03-12T01:31:25.047Z,52.72
2019-03-12T01:33:56.207Z,52.57
2019-03-12T01:36:27.199Z,52.46
2019-03-12T01:38:58.184Z,52.44
2019-03-12T01:41:29.115Z,53.00
2019-03-12T01:44:00.169Z,53.27
2019-03-12T01:46:32.313Z,52.46
2019-03-12T01:49:03.335Z,53.38
2019-03-12T01:51:34.401Z,52.94
2019-03-12T01:54:05.353Z,52.54
2019-03-12T01:56:36.450Z,52.76
2019-03-12T01:59:07.338Z,52.39
2019-03-12T02:01:38.399Z,52.56
2019-03-12T02:04:09.440Z,52.97
2019-03-12T02:06:41.439Z,52.40
2019-03-12T02:09:12.411Z,52.36
2019-03-12T02:11:43.509Z,52.31
2019-03-12T02:14:26.483Z,52.58
2019-03-12T02:16:57.440Z,52.28
2019-03-12T02:19:28.377Z,52.59
2019-03-12T02:21:59.557Z,53.52
2019-03-12T02:24:30.442Z,52.66
2019-03-12T02:27:01.470Z,53.92
2019-03-12T02:29:32.407Z,53.46
2019-03-12T02:32:04.572Z,55.58
2019-03-12T02:34:35.562Z,52.41
2019-03-12T02:37:08.079Z,52.49
2019-03-12T02:39:39.059Z,53.22
2019-03-12T02:42:12.669Z,54.52
2019-03-12T02:44:42.629Z,53.31
2019-03-12T02:47:13.603Z,52.22
2019-03-12T02:49:44.505Z,53.74
2019-03-12T02:52:15.409Z,52.57
2019-03-12T02:54:46.381Z,52.67
2019-03-12T02:57:17.611Z,52.66
2019-03-12T02:59:48.636Z,53.65
2019-03-12T03:02:19.566Z,52.75
2019-03-12T03:04:54.064Z,52.66
2019-03-12T03:07:24.886Z,52.87
2019-03-12T03:09:55.760Z,53.30
2019-03-12T03:12:26.780Z,52.91
2019-03-12T03:14:59.299Z,53.18
2019-03-12T03:17:30.404Z,53.32
2019-03-12T03:20:01.394Z,52.46
2019-03-12T03:22:33.521Z,52.73
2019-03-12T03:25:06.204Z,53.47
2019-03-12T03:27:37.243Z,53.10
2019-03-12T03:30:11.531Z,52.89
2019-03-12T03:32:43.609Z,53.08
2019-03-12T03:35:14.893Z,54.14
2019-03-12T03:37:45.981Z,52.90
2019-03-12T03:40:24.555Z,53.30
2019-03-12T03:42:55.714Z,53.12
2019-03-12T03:45:28.808Z,53.71
2019-03-12T03:48:00.011Z,53.81
2019-03-12T03:50:31.035Z,52.80
2019-03-12T03:53:03.661Z,52.92
2019-03-12T03:55:34.835Z,55.86
2019-03-12T03:58:07.111Z,56.17
2019-03-12T04:00:38.013Z,54.50
2019-03-12T04:03:11.108Z,52.44
2019-03-12T04:05:42.370Z,52.80
2019-03-12T04:08:13.660Z,52.55
2019-03-12T04:10:44.599Z,52.67
2019-03-12T04:13:15.555Z,53.47
2019-03-12T04:15:46.577Z,52.51
2019-03-12T04:18:17.616Z,53.87
2019-03-12T04:20:48.600Z,53.91
2019-03-12T04:23:19.774Z,55.45
2019-03-12T04:25:52.349Z,54.16
2019-03-12T04:28:23.398Z,53.40
2019-03-12T04:30:54.519Z,53.33
2019-03-12T04:33:54.707Z,56.71
2019-03-12T04:36:25.786Z,55.42
2019-03-12T04:38:56.839Z,57.11
2019-03-12T04:41:27.853Z,55.47
2019-03-12T04:43:58.869Z,56.86
2019-03-12T04:46:29.787Z,54.18
2019-03-12T04:49:01.795Z,56.02
2019-03-12T04:51:33.048Z,55.61
2019-03-12T04:54:03.973Z,56.63
2019-03-12T04:56:34.922Z,53.93
2019-03-12T04:59:05.926Z,54.45
2019-03-12T05:01:36.887Z,53.56
2019-03-12T05:04:07.903Z,54.30
2019-03-12T05:06:41.980Z,57.63
2019-03-12T05:09:12.961Z,57.03
2019-03-12T05:11:43.995Z,55.37
2019-03-12T05:14:24.410Z,54.14
2019-03-12T05:16:58.355Z,54.77
2019-03-12T05:19:32.907Z,55.51
2019-03-12T05:22:04.002Z,56.29
2019-03-12T05:24:35.053Z,57.87
2019-03-12T05:27:06.138Z,58.74
2019-03-12T05:29:37.338Z,60.62
2019-03-12T05:32:08.321Z,60.22
2019-03-12T05:34:39.340Z,60.45
2019-03-12T05:37:11.400Z,60.66
2019-03-12T05:39:42.324Z,60.52
2019-03-12T05:42:14.918Z,60.54
2019-03-12T05:44:45.969Z,60.52
2019-03-12T05:47:16.885Z,60.29
2019-03-12T05:49:47.869Z,60.74
2019-03-12T05:52:18.873Z,59.96
2019-03-12T05:54:50.295Z,60.49
2019-03-12T05:57:24.050Z,59.12
2019-03-12T05:59:55.140Z,58.95
2019-03-12T06:02:26.180Z,59.75
2019-03-12T06:04:57.372Z,59.41
2019-03-12T06:07:28.444Z,58.64
2019-03-12T06:09:59.645Z,61.87
2019-03-12T06:12:30.779Z,58.56
2019-03-12T06:15:01.906Z,56.70
2019-03-12T06:17:33.509Z,56.44
2019-03-12T06:20:07.650Z,56.60
2019-03-12T06:22:38.632Z,56.08
2019-03-12T06:25:09.626Z,56.21
2019-03-12T06:27:40.820Z,57.74
2019-03-12T06:30:16.593Z,57.01
2019-03-12T06:32:49.338Z,56.36
2019-03-12T06:35:26.352Z,56.07
2019-03-12T06:37:59.102Z,56.07
2019-03-12T06:40:47.010Z,57.34
2019-03-12T06:43:19.705Z,57.34
2019-03-12T06:45:52.434Z,56.38
2019-03-12T06:48:28.690Z,55.56
2019-03-12T06:51:04.226Z,57.80
2019-03-12T06:53:38.156Z,53.71
2019-03-12T06:56:12.978Z,54.26
2019-03-12T06:58:48.521Z,54.13
2019-03-12T07:01:21.445Z,54.23
2019-03-12T07:03:54.317Z,53.49
2019-03-12T07:06:29.596Z,53.86
2019-03-12T07:09:11.208Z,53.66
2019-03-12T07:11:59.256Z,52.69
2019-03-12T07:14:49.125Z,53.75
2019-03-12T07:17:27.707Z,52.20
2019-03-12T07:20:16.993Z,52.63
2019-03-12T07:23:07.786Z,53.64
2019-03-12T07:25:40.479Z,51.89
2019-03-12T07:28:29.831Z,51.10
2019-03-12T07:31:05.371Z,48.86
2019-03-12T07:33:40.677Z,49.03
2019-03-12T07:36:13.487Z,48.71
2019-03-12T07:39:02.699Z,49.31
2019-03-12T07:41:45.873Z,49.47
2019-03-12T07:44:18.592Z,46.98
2019-03-12T07:46:51.256Z,48.35
2019-03-12T07:49:32.740Z,47.34
2019-03-12T07:52:08.769Z,49.23
2019-03-12T07:54:50.262Z,47.75
2019-03-12T07:57:26.632Z,45.90
2019-03-12T08:00:15.720Z,45.85
2019-03-12T08:02:54.414Z,46.19
2019-03-12T08:05:33.276Z,46.31
2019-03-12T08:08:08.669Z,45.67
2019-03-12T08:10:47.674Z,45.19
2019-03-12T08:13:20.315Z,46.26
2019-03-12T08:15:52.928Z,44.53
2019-03-12T08:18:25.628Z,42.81
2019-03-12T08:20:58.359Z,42.81
2019-03-12T08:23:38.487Z,42.92
2019-03-12T08:26:17.081Z,43.86
2019-03-12T08:28:52.728Z,46.90
2019-03-12T08:31:41.970Z,43.74
2019-03-12T08:34:14.773Z,41.37
2019-03-12T08:37:03.853Z,40.93
2019-03-12T08:39:42.361Z,41.06
2019-03-12T08:42:17.824Z,40.55
2019-03-12T08:45:02.207Z,39.92
2019-03-12T08:47:53.281Z,39.64
2019-03-12T08:50:40.827Z,41.36
2019-03-12T08:53:17.046Z,39.43
2019-03-12T08:55:49.750Z,39.38
2019-03-12T08:58:22.761Z,39.55
2019-03-12T09:00:56.666Z,38.74
2019-03-12T09:03:45.427Z,38.78
2019-03-12T09:06:18.179Z,40.21
2019-03-12T09:09:00.170Z,41.30
2019-03-12T09:11:33.133Z,39.17
2019-03-12T09:14:21.767Z,40.18
2019-03-12T09:17:00.482Z,37.08
2019-03-12T09:19:49.238Z,37.88
2019-03-12T09:22:40.032Z,38.52
2019-03-12T09:25:21.456Z,38.79
2019-03-12T09:27:56.029Z,38.52
2019-03-12T09:30:34.407Z,37.52
2019-03-12T09:33:07.280Z,37.84
2019-03-12T09:35:45.396Z,36.39
2019-03-12T09:38:18.005Z,37.01
2019-03-12T09:40:53.258Z,39.54
2019-03-12T09:43:26.008Z,38.78
2019-03-12T09:46:01.324Z,38.87
2019-03-12T09:48:33.989Z,39.19
2019-03-12T09:51:12.798Z,37.45
2019-03-12T09:53:45.449Z,37.02
2019-03-12T09:56:36.833Z,36.52
2019-03-12T09:59:18.289Z,36.76
2019-03-12T10:02:00.152Z,37.47
2019-03-12T10:04:38.505Z,37.61
2019-03-12T10:07:19.980Z,37.74
2019-03-12T10:09:52.539Z,37.16
2019-03-12T10:12:25.231Z,37.16
2019-03-12T10:15:09.732Z,37.38
2019-03-12T10:17:58.699Z,37.06
2019-03-12T10:20:34.024Z,37.56
2019-03-12T10:23:15.747Z,36.97
2019-03-12T10:25:48.313Z,35.86
2019-03-12T10:28:23.632Z,35.87
2019-03-12T10:30:59.403Z,35.56
2019-03-12T10:33:34.595Z,33.56
2019-03-12T10:36:06.738Z,33.78
2019-03-12T10:39:31.845Z,34.34
2019-03-12T10:42:07.174Z,34.89
2019-03-12T10:44:51.943Z,34.01
2019-03-12T10:47:41.651Z,33.97
2019-03-12T10:50:18.115Z,34.74
2019-03-12T10:52:49.275Z,34.26
2019-03-12T10:55:20.243Z,34.23
2019-03-12T10:57:51.121Z,32.69
2019-03-12T11:00:22.498Z,31.42
2019-03-12T11:02:53.514Z,31.85
2019-03-12T11:05:24.508Z,30.71
2019-03-12T11:07:55.775Z,29.79
2019-03-12T11:10:26.895Z,29.37
2019-03-12T11:12:57.853Z,31.93
2019-03-12T11:15:30.010Z,31.25
2019-03-12T11:18:01.341Z,32.94
2019-03-12T11:20:32.361Z,33.43
2019-03-12T11:23:03.447Z,34.33
2019-03-12T11:25:34.971Z,33.85
2019-03-12T11:28:06.089Z,33.00
2019-03-12T11:30:37.176Z,33.20
2019-03-12T11:33:08.318Z,33.52
2019-03-12T11:35:39.844Z,33.84
2019-03-12T11:38:11.280Z,33.92
2019-03-12T11:40:42.474Z,34.14
2019-03-12T11:43:13.530Z,35.04
2019-03-12T11:45:44.795Z,35.92
2019-03-12T11:48:16.013Z,33.91
2019-03-12T11:50:47.084Z,33.91
2019-03-12T11:53:18.122Z,33.95
2019-03-12T11:55:49.141Z,34.92
2019-03-12T11:58:20.221Z,35.59
2019-03-12T12:00:52.806Z,35.71
2019-03-12T12:03:23.971Z,36.24
2019-03-12T12:05:56.026Z,35.14
2019-03-12T12:08:27.258Z,35.54
2019-03-12T12:11:09.044Z,35.04
2019-03-12T12:13:40.063Z,35.20
2019-03-12T12:16:11.010Z,35.20
2019-03-12T12:18:42.108Z,35.75
2019-03-12T12:21:13.155Z,35.75
2019-03-12T12:23:44.145Z,33.57
2019-03-12T12:26:15.156Z,32.71
2019-03-12T12:28:46.121Z,32.77
2019-03-12T12:31:17.355Z,34.02
2019-03-12T12:33:48.162Z,34.21
2019-03-12T12:36:19.139Z,34.42
2019-03-12T12:38:50.062Z,34.42
2019-03-12T12:41:21.170Z,36.42
2019-03-12T12:43:52.324Z,34.68
2019-03-12T12:46:23.348Z,34.30
2019-03-12T12:48:54.549Z,35.04
2019-03-12T12:51:25.647Z,35.27
2019-03-12T12:53:57.821Z,35.37
2019-03-12T12:56:28.844Z,34.82
2019-03-12T12:58:59.834Z,34.98
2019-03-12T13:01:30.795Z,35.35
2019-03-12T13:04:01.963Z,35.77
2019-03-12T13:06:34.201Z,35.12
2019-03-12T13:09:06.272Z,35.73
2019-03-12T13:11:38.878Z,35.87
2019-03-12T13:14:09.989Z,35.60
2019-03-12T13:16:40.934Z,36.03
2019-03-12T13:19:11.883Z,35.62
2019-03-12T13:21:43.064Z,36.07
2019-03-12T13:24:14.112Z,35.57
2019-03-12T13:26:46.103Z,35.93
2019-03-12T13:29:17.117Z,35.93
2019-03-12T13:31:49.357Z,35.95
2019-03-12T13:34:20.295Z,35.87
2019-03-12T13:36:56.118Z,35.85
2019-03-12T13:39:27.585Z,36.17
2019-03-12T13:41:58.792Z,36.03
2019-03-12T13:44:29.974Z,36.12
2019-03-12T13:47:00.986Z,35.82
2019-03-12T13:49:32.086Z,35.39
2019-03-12T13:52:03.280Z,35.38
2019-03-12T13:54:34.394Z,35.18
2019-03-12T13:57:05.546Z,35.34
2019-03-12T13:59:36.603Z,35.85
2019-03-12T14:02:07.680Z,35.46
2019-03-12T14:04:38.787Z,35.44
2019-03-12T14:07:09.920Z,35.19
2019-03-12T14:09:40.826Z,35.28
2019-03-12T14:12:11.883Z,34.42
2019-03-12T14:14:42.958Z,34.70
2019-03-12T14:17:14.097Z,35.17
2019-03-12T14:19:45.075Z,34.98
2019-03-12T14:22:16.160Z,35.13
2019-03-12T14:24:47.309Z,35.29
2019-03-12T14:27:19.358Z,35.10
2019-03-12T14:29:50.339Z,35.51
2019-03-12T14:32:21.468Z,35.42
2019-03-12T14:34:52.326Z,35.66
2019-03-12T14:37:23.878Z,35.63
2019-03-12T14:39:55.175Z,36.14
2019-03-12T14:42:26.254Z,35.86
2019-03-12T14:44:57.265Z,36.12
2019-03-12T14:47:28.509Z,36.17
2019-03-12T14:49:59.812Z,35.92
2019-03-12T14:52:30.936Z,36.73
2019-03-12T14:55:01.821Z,36.85
2019-03-12T14:57:32.976Z,37.16
2019-03-12T15:00:07.793Z,37.03
2019-03-12T15:02:38.988Z,37.63
2019-03-12T15:05:10.167Z,37.78
2019-03-12T15:07:41.273Z,37.75
2019-03-12T15:10:12.469Z,37.39
2019-03-12T15:12:43.799Z,37.33
2019-03-12T15:15:15.136Z,36.80
2019-03-12T15:17:46.234Z,36.94
2019-03-12T15:20:17.246Z,37.38
2019-03-12T15:22:48.475Z,38.12
2019-03-12T15:25:19.498Z,38.30
2019-03-12T15:27:50.695Z,38.66
2019-03-12T15:30:27.275Z,38.64
2019-03-12T15:32:58.208Z,38.88
2019-03-12T15:35:29.297Z,39.04
2019-03-12T15:38:00.621Z,39.53
2019-03-12T15:40:31.582Z,39.76
2019-03-12T15:43:02.647Z,39.17
2019-03-12T15:45:33.664Z,39.63
2019-03-12T15:48:04.630Z,39.06
2019-03-12T15:50:35.707Z,39.66
2019-03-12T15:53:07.360Z,40.31
2019-03-12T15:55:38.414Z,39.79
2019-03-12T15:58:09.560Z,39.48
2019-03-12T16:00:40.621Z,39.88
2019-03-12T16:03:11.659Z,39.41
2019-03-12T16:05:42.795Z,38.83
2019-03-12T16:08:13.839Z,38.62
2019-03-12T16:10:57.150Z,38.63
2019-03-12T16:13:17.665Z,39.63
2019-03-12T16:15:48.894Z,39.63
2019-03-12T16:18:20.028Z,39.54
2019-03-12T16:20:51.350Z,40.06
2019-03-12T16:23:22.661Z,38.53
2019-03-12T16:25:53.959Z,38.53
2019-03-12T16:28:25.281Z,41.40
2019-03-12T16:30:57.607Z,39.63
2019-03-12T16:33:28.955Z,39.26
2019-03-12T16:36:00.227Z,39.70
2019-03-12T16:38:31.644Z,39.66
2019-03-12T16:41:03.101Z,40.00
2019-03-12T16:43:34.489Z,39.98
2019-03-12T16:46:05.794Z,40.18
2019-03-12T16:48:38.566Z,40.29
2019-03-12T16:51:09.943Z,39.90
2019-03-12T16:53:41.011Z,40.18
2019-03-12T16:56:12.049Z,39.95
2019-03-12T16:58:43.186Z,40.11
2019-03-12T17:01:15.523Z,40.96
2019-03-12T17:03:46.862Z,40.33
2019-03-12T17:06:18.184Z,40.15
2019-03-12T17:08:50.018Z,40.62
2019-03-12T17:11:21.331Z,40.53
2019-03-12T17:13:52.758Z,40.54
2019-03-12T17:16:24.190Z,40.12
2019-03-12T17:18:55.669Z,40.21
2019-03-12T17:21:27.020Z,41.09
2019-03-12T17:23:58.467Z,40.22
2019-03-12T17:26:30.596Z,40.61
2019-03-12T17:29:02.278Z,40.57
2019-03-12T17:31:33.685Z,44.38
2019-03-12T17:34:05.379Z,40.59
2019-03-12T17:36:36.948Z,41.71
2019-03-12T17:39:10.036Z,40.96
2019-03-12T17:41:43.028Z,43.17
2019-03-12T17:44:14.571Z,44.13
2019-03-12T17:46:45.874Z,42.90
2019-03-12T17:49:19.278Z,42.24
2019-03-12T17:51:50.571Z,43.72
2019-03-12T17:54:22.063Z,44.64
2019-03-12T17:56:53.750Z,43.08
2019-03-12T17:59:28.499Z,44.96
2019-03-12T18:02:00.165Z,44.36
2019-03-12T18:04:32.717Z,44.58
2019-03-12T18:07:05.662Z,44.41
2019-03-12T18:09:51.312Z,45.65
2019-03-12T18:12:41.545Z,45.52
2019-03-12T18:15:19.235Z,45.31
2019-03-12T18:17:50.752Z,45.37
2019-03-12T18:20:23.034Z,46.53
2019-03-12T18:22:55.364Z,47.37
2019-03-12T18:25:29.132Z,49.81
2019-03-12T18:28:00.759Z,48.60
2019-03-12T18:30:32.092Z,50.17
2019-03-12T18:33:03.491Z,48.29
2019-03-12T18:35:34.971Z,49.40
2019-03-12T18:38:06.420Z,47.47
2019-03-12T18:40:37.877Z,48.52
2019-03-12T18:43:09.197Z,49.76
2019-03-12T18:45:40.567Z,48.94
2019-03-12T18:48:12.229Z,49.63
2019-03-12T18:50:43.753Z,52.58
2019-03-12T18:53:17.938Z,50.36
2019-03-12T18:55:52.433Z,51.60
2019-03-12T18:58:23.758Z,50.14
2019-03-12T19:00:58.126Z,50.42
2019-03-12T19:03:29.482Z,50.94
2019-03-12T19:06:00.884Z,51.33
2019-03-12T19:08:32.258Z,51.27
2019-03-12T19:11:03.779Z,52.63
2019-03-12T19:13:35.480Z,53.32
2019-03-12T19:16:07.130Z,51.32
2019-03-12T19:18:40.423Z,50.28
2019-03-12T19:21:13.025Z,52.13
2019-03-12T19:23:44.440Z,53.49
2019-03-12T19:26:15.883Z,53.91
2019-03-12T19:28:47.251Z,55.12
2019-03-12T19:31:23.207Z,54.57
2019-03-12T19:33:55.373Z,53.59
2019-03-12T19:36:26.955Z,53.26
2019-03-12T19:38:58.642Z,53.66
2019-03-12T19:41:30.330Z,54.34
2019-03-12T19:44:02.637Z,53.67
2019-03-12T19:46:34.292Z,54.47
2019-03-12T19:49:05.905Z,54.79
2019-03-12T19:51:37.322Z,54.16
2019-03-12T19:54:08.763Z,53.41
2019-03-12T19:56:40.258Z,53.36
2019-03-12T19:59:12.938Z,53.79
2019-03-12T20:01:44.829Z,54.45
2019-03-12T20:04:16.190Z,55.02
2019-03-12T20:06:47.815Z,54.19
2019-03-12T20:09:22.357Z,54.36
2019-03-12T20:12:11.690Z,54.36
2019-03-12T20:14:58.196Z,54.17
2019-03-12T20:18:09.096Z,54.79
2019-03-12T20:21:10.879Z,54.22
2019-03-12T20:24:19.040Z,53.55
2019-03-12T20:27:10.156Z,53.88
2019-03-12T20:29:47.943Z,53.23
2019-03-12T20:32:55.817Z,53.19
2019-03-12T20:35:56.048Z,52.62
2019-03-12T20:39:05.285Z,52.83
2019-03-12T20:41:56.814Z,51.86
2019-03-12T20:44:52.887Z,56.30
2019-03-12T20:47:53.640Z,52.60
2019-03-12T20:50:48.024Z,52.29
2019-03-12T20:53:31.251Z,52.81
2019-03-12T20:56:37.512Z,51.87
2019-03-12T20:59:45.528Z,53.70
2019-03-12T21:02:34.815Z,54.43
2019-03-12T21:05:25.467Z,55.75
2019-03-12T21:08:21.546Z,55.46
2019-03-12T21:11:26.508Z,55.30
2019-03-12T21:14:35.993Z,54.60
2019-03-12T21:17:26.547Z,54.26
2019-03-12T21:20:24.990Z,54.81
2019-03-12T21:23:02.106Z,54.58
2019-03-12T21:25:39.520Z,54.32
2019-03-12T21:28:38.189Z,55.13
2019-03-12T21:31:10.470Z,51.55
2019-03-12T21:33:43.861Z,50.64
2019-03-12T21:36:15.181Z,51.65
2019-03-12T21:38:46.456Z,52.04
2019-03-12T21:41:17.536Z,50.35
2019-03-12T21:43:48.770Z,50.47
2019-03-12T21:46:19.991Z,49.80
2019-03-12T21:48:51.496Z,49.79
2019-03-12T21:51:22.696Z,51.66
2019-03-12T21:53:53.753Z,51.82
2019-03-12T21:56:24.950Z,51.95
2019-03-12T21:58:56.065Z,51.91
2019-03-12T22:01:27.546Z,52.15
2019-03-12T22:04:02.886Z,51.36
2019-03-12T22:06:34.040Z,52.48
2019-03-12T22:09:05.601Z,51.60
2019-03-12T22:11:38.466Z,52.02
2019-03-12T22:14:09.999Z,51.83
2019-03-12T22:16:43.857Z,50.94
2019-03-12T22:19:16.075Z,51.30
2019-03-12T22:21:51.571Z,51.21
2019-03-12T22:24:22.789Z,52.30
2019-03-12T22:26:53.965Z,49.57
2019-03-12T22:29:25.070Z,48.88
2019-03-12T22:31:56.172Z,49.68
2019-03-12T22:34:30.029Z,48.26
2019-03-12T22:37:00.135Z,47.64
2019-03-12T22:39:31.356Z,47.74
2019-03-12T22:42:02.559Z,47.44
2019-03-12T22:44:33.663Z,48.53
2019-03-12T22:47:04.689Z,47.85
2019-03-12T22:49:35.737Z,47.72
2019-03-12T22:52:06.877Z,47.61
2019-03-12T22:54:37.976Z,48.91
2019-03-12T22:57:09.105Z,47.87
2019-03-12T22:59:58.181Z,49.09
2019-03-12T23:02:49.632Z,48.44
2019-03-12T23:05:38.735Z,47.88
2019-03-12T23:08:28.045Z,47.90
2019-03-12T23:11:00.765Z,48.25
2019-03-12T23:13:32.279Z,47.87
2019-03-12T23:16:04.233Z,48.00
2019-03-12T23:18:35.625Z,48.63
2019-03-12T23:21:07.000Z,48.98
2019-03-12T23:23:38.719Z,48.65
2019-03-12T23:26:10.072Z,48.86
2019-03-12T23:28:41.208Z,48.81
2019-03-12T23:31:12.360Z,49.04
2019-03-12T23:33:43.759Z,49.65
2019-03-12T23:36:14.838Z,49.46
2019-03-12T23:38:46.054Z,51.26
2019-03-12T23:41:17.238Z,49.54
2019-03-12T23:43:48.426Z,48.75
2019-03-12T23:46:19.539Z,49.95
2019-03-12T23:48:50.722Z,49.48
2019-03-12T23:51:21.816Z,49.02
2019-03-12T23:53:53.099Z,49.20
2019-03-12T23:56:24.316Z,50.45
2019-03-12T23:58:55.405Z,49.62
